createdAt,value
2019-03-28T00:02:27.374Z,89.90
2019-03-28T00:04:55.790Z,90.10
2019-03-28T00:07:24.435Z,90.20
2019-03-28T00:09:53.011Z,90.30
2019-03-28T00:12:21.414Z,90.60
2019-03-28T00:14:49.829Z,90.60
2019-03-28T00:17:18.259Z,90.70
2019-03-28T00:19:46.695Z,90.80
2019-03-28T00:22:17.266Z,90.80
2019-03-28T00:24:47.686Z,90.80
2019-03-28T00:27:16.103Z,90.80
2019-03-28T00:29:44.893Z,90.90
2019-03-28T00:32:13.298Z,90.80
2019-03-28T00:34:41.731Z,90.80
2019-03-28T00:37:10.143Z,90.80
2019-03-28T00:39:38.571Z,90.90
2019-03-28T00:42:07.060Z,91.00
2019-03-28T00:44:35.475Z,91.30
2019-03-28T00:47:03.881Z,91.50
2019-03-28T00:49:32.310Z,91.60
2019-03-28T00:52:00.732Z,91.60
2019-03-28T00:54:29.147Z,91.60
2019-03-28T00:56:57.930Z,91.70
2019-03-28T00:59:26.360Z,91.70
2019-03-28T01:01:54.827Z,91.80
2019-03-28T01:04:23.266Z,91.80
2019-03-28T01:06:52.249Z,91.80
2019-03-28T01:09:20.752Z,91.80
2019-03-28T01:11:49.153Z,91.90
2019-03-28T01:14:17.578Z,91.90
2019-03-28T01:16:45.987Z,92.00
2019-03-28T01:19:14.420Z,92.00
2019-03-28T01:21:42.830Z,91.90
2019-03-28T01:24:11.283Z,91.80
2019-03-28T01:26:40.036Z,91.80
2019-03-28T01:29:08.473Z,91.90
2019-03-28T01:31:37.247Z,91.80
2019-03-28T01:34:05.696Z,91.70
2019-03-28T01:36:34.101Z,91.70
2019-03-28T01:39:02.517Z,91.60
2019-03-28T01:41:30.939Z,91.60
2019-03-28T01:43:59.374Z,91.70
2019-03-28T01:46:27.786Z,91.70
2019-03-28T01:48:56.190Z,91.60
2019-03-28T01:51:24.609Z,91.60
2019-03-28T01:53:53.038Z,91.70
2019-03-28T01:56:21.468Z,91.70
2019-03-28T01:58:49.871Z,91.70
2019-03-28T02:01:18.605Z,92.00
2019-03-28T02:03:47.049Z,91.90
2019-03-28T02:06:15.461Z,91.90
2019-03-28T02:08:43.870Z,91.90
2019-03-28T02:11:12.306Z,92.10
2019-03-28T02:13:40.718Z,92.40
2019-03-28T02:16:09.150Z,92.50
2019-03-28T02:18:37.958Z,92.60
2019-03-28T02:21:09.432Z,92.60
2019-03-28T02:23:36.510Z,92.60
2019-03-28T02:26:04.947Z,92.50
2019-03-28T02:28:33.356Z,92.40
2019-03-28T02:31:01.796Z,92.50
2019-03-28T02:33:30.193Z,92.50
2019-03-28T02:35:59.098Z,92.70
2019-03-28T02:38:27.497Z,92.90
2019-03-28T02:40:55.926Z,93.00
2019-03-28T02:43:24.348Z,93.00
2019-03-28T02:45:53.640Z,93.10
2019-03-28T02:48:22.065Z,93.10
2019-03-28T02:50:50.562Z,93.20
2019-03-28T02:53:18.978Z,93.20
2019-03-28T02:55:47.393Z,93.10
2019-03-28T02:58:15.814Z,93.00
2019-03-28T03:00:44.221Z,93.00
2019-03-28T03:03:12.635Z,93.10
2019-03-28T03:05:41.063Z,93.10
2019-03-28T03:08:09.480Z,93.10
2019-03-28T03:10:37.890Z,93.20
2019-03-28T03:13:06.296Z,93.20
2019-03-28T03:15:34.959Z,93.20
2019-03-28T03:18:03.608Z,93.30
2019-03-28T03:20:32.324Z,93.50
2019-03-28T03:23:00.732Z,93.50
2019-03-28T03:25:29.150Z,93.50
2019-03-28T03:27:59.302Z,93.60
2019-03-28T03:30:27.706Z,93.60
2019-03-28T03:32:56.115Z,93.70
2019-03-28T03:35:24.774Z,93.80
2019-03-28T03:37:53.635Z,93.80
2019-03-28T03:40:22.044Z,93.90
2019-03-28T03:42:50.899Z,93.90
2019-03-28T03:45:19.299Z,93.90
2019-03-28T03:47:47.728Z,93.80
2019-03-28T03:50:22.385Z,93.60
2019-03-28T03:52:51.171Z,93.60
2019-03-28T03:55:19.568Z,93.50
2019-03-28T03:57:47.996Z,93.30
2019-03-28T04:00:19.481Z,93.30
2019-03-28T04:02:47.890Z,93.30
2019-03-28T04:05:16.320Z,93.40
2019-03-28T04:07:44.735Z,93.40
2019-03-28T04:10:13.209Z,93.50
2019-03-28T04:12:41.661Z,93.50
2019-03-28T04:15:10.306Z,93.60
2019-03-28T04:17:38.732Z,93.70
2019-03-28T04:20:07.585Z,93.70
2019-03-28T04:22:36.981Z,93.80
2019-03-28T04:25:06.926Z,93.90
2019-03-28T04:27:35.648Z,93.90
2019-03-28T04:30:06.434Z,94.00
2019-03-28T04:32:34.911Z,94.10
2019-03-28T04:35:04.362Z,94.20
2019-03-28T04:37:32.894Z,94.40
2019-03-28T04:40:01.412Z,94.40
2019-03-28T04:42:29.844Z,94.60
2019-03-28T04:44:58.275Z,94.40
2019-03-28T04:47:26.700Z,94.40
2019-03-28T04:49:55.091Z,94.40
2019-03-28T04:52:23.518Z,94.40
2019-03-28T04:54:51.926Z,94.30
2019-03-28T04:57:20.346Z,94.30
2019-03-28T04:59:48.765Z,94.40
2019-03-28T05:02:17.199Z,94.30
2019-03-28T05:04:45.617Z,94.30
2019-03-28T05:07:14.341Z,94.30
2019-03-28T05:09:43.009Z,94.30
2019-03-28T05:12:11.426Z,94.30
2019-03-28T05:14:40.386Z,94.40
2019-03-28T05:17:09.183Z,94.40
2019-03-28T05:19:37.592Z,94.60
2019-03-28T05:22:05.997Z,94.60
2019-03-28T05:24:34.437Z,94.60
2019-03-28T05:27:02.855Z,94.70
2019-03-28T05:29:31.288Z,94.50
2019-03-28T05:32:00.483Z,94.50
2019-03-28T05:34:29.090Z,94.50
2019-03-28T05:36:57.523Z,94.50
2019-03-28T05:39:26.424Z,94.50
2019-03-28T05:41:54.840Z,94.50
2019-03-28T05:44:23.265Z,94.40
2019-03-28T05:46:51.679Z,94.60
2019-03-28T05:49:20.093Z,94.60
2019-03-28T05:51:48.539Z,94.70
2019-03-28T05:54:17.006Z,94.60
2019-03-28T05:56:45.431Z,94.60
2019-03-28T05:59:13.865Z,94.70
2019-03-28T06:01:42.276Z,94.70
2019-03-28T06:04:10.688Z,94.50
2019-03-28T06:06:39.103Z,94.40
2019-03-28T06:09:07.984Z,94.30
2019-03-28T06:11:36.464Z,94.10
2019-03-28T06:14:05.232Z,94.10
2019-03-28T06:16:33.645Z,94.00
2019-03-28T06:19:02.079Z,93.90
2019-03-28T06:21:30.483Z,93.90
2019-03-28T06:23:58.923Z,94.10
2019-03-28T06:26:27.638Z,93.60
2019-03-28T06:28:56.069Z,93.20
2019-03-28T06:31:24.502Z,92.90
2019-03-28T06:33:52.942Z,92.30
2019-03-28T06:36:21.405Z,92.10
2019-03-28T06:38:50.301Z,91.70
2019-03-28T06:41:19.278Z,91.50
2019-03-28T06:43:47.824Z,91.30
2019-03-28T06:46:16.331Z,91.00
2019-03-28T06:48:44.802Z,90.90
2019-03-28T06:51:13.257Z,90.60
2019-03-28T06:53:41.715Z,90.20
2019-03-28T06:56:10.176Z,90.00
2019-03-28T06:58:38.633Z,89.50
2019-03-28T07:01:07.083Z,89.20
2019-03-28T07:03:35.541Z,88.90
2019-03-28T07:06:04.655Z,88.30
2019-03-28T07:08:33.137Z,87.90
2019-03-28T07:11:02.522Z,87.70
2019-03-28T07:13:31.125Z,87.00
2019-03-28T07:15:59.567Z,86.70
2019-03-28T07:18:28.002Z,86.20
2019-03-28T07:20:56.451Z,85.40
2019-03-28T07:23:25.250Z,84.90
2019-03-28T07:25:53.699Z,84.50
2019-03-28T07:28:22.172Z,83.90
2019-03-28T07:30:50.605Z,83.40
2019-03-28T07:33:24.101Z,82.20
2019-03-28T07:35:52.578Z,82.10
2019-03-28T07:38:34.123Z,82.30
2019-03-28T07:41:02.602Z,80.50
2019-03-28T07:43:31.031Z,80.60
2019-03-28T07:45:59.492Z,80.10
2019-03-28T07:48:28.260Z,79.70
2019-03-28T07:50:57.050Z,79.10
2019-03-28T07:53:25.828Z,79.50
2019-03-28T07:55:54.263Z,79.90
2019-03-28T07:58:22.698Z,79.80
2019-03-28T08:00:51.144Z,78.80
2019-03-28T08:03:19.562Z,77.30
2019-03-28T08:05:48.005Z,75.70
2019-03-28T08:08:16.448Z,75.00
2019-03-28T08:10:44.895Z,74.90
2019-03-28T08:13:13.560Z,75.40
2019-03-28T08:15:42.265Z,75.90
2019-03-28T08:18:10.771Z,76.30
2019-03-28T08:20:39.518Z,75.70
2019-03-28T08:23:07.944Z,76.00
2019-03-28T08:25:36.377Z,76.20
2019-03-28T08:28:04.822Z,74.50
2019-03-28T08:30:38.148Z,75.60
2019-03-28T08:33:07.756Z,74.10
2019-03-28T08:35:37.030Z,74.00
2019-03-28T08:38:10.046Z,71.00
2019-03-28T08:40:42.175Z,70.30
2019-03-28T08:43:11.023Z,69.60
2019-03-28T08:45:39.483Z,68.70
2019-03-28T08:48:08.199Z,69.60
2019-03-28T08:50:36.930Z,69.80
2019-03-28T08:53:05.540Z,69.80
2019-03-28T08:55:46.072Z,69.10
2019-03-28T08:58:14.631Z,69.40
2019-03-28T09:00:51.572Z,67.70
2019-03-28T09:03:13.267Z,66.40
2019-03-28T09:05:41.709Z,66.40
2019-03-28T09:08:10.146Z,64.40
2019-03-28T09:10:38.603Z,65.20
2019-03-28T09:13:07.231Z,66.40
2019-03-28T09:15:44.936Z,68.30
2019-03-28T09:18:13.433Z,66.40
2019-03-28T09:20:41.919Z,64.20
2019-03-28T09:23:10.357Z,64.50
2019-03-28T09:25:38.806Z,64.60
2019-03-28T09:28:07.304Z,64.30
2019-03-28T09:30:48.154Z,65.20
2019-03-28T09:33:09.334Z,64.60
2019-03-28T09:35:38.607Z,62.50
2019-03-28T09:38:07.401Z,62.10
2019-03-28T09:40:36.353Z,59.70
2019-03-28T09:43:05.647Z,61.20
2019-03-28T09:45:34.079Z,60.20
2019-03-28T09:48:02.544Z,60.30
2019-03-28T09:50:30.999Z,60.30
2019-03-28T09:53:00.665Z,61.20
2019-03-28T09:55:29.783Z,61.10
2019-03-28T09:57:58.227Z,61.20
2019-03-28T10:00:26.666Z,59.70
2019-03-28T10:02:55.128Z,57.50
2019-03-28T10:05:23.592Z,56.10
2019-03-28T10:07:52.043Z,56.10
2019-03-28T10:10:24.347Z,56.70
2019-03-28T10:12:52.847Z,56.80
2019-03-28T10:15:21.361Z,56.60
2019-03-28T10:17:49.833Z,57.00
2019-03-28T10:20:18.263Z,58.40
2019-03-28T10:22:46.729Z,56.90
2019-03-28T10:25:16.704Z,56.20
2019-03-28T10:27:45.206Z,56.10
2019-03-28T10:30:16.945Z,57.80
2019-03-28T10:32:45.839Z,54.10
2019-03-28T10:35:17.393Z,56.90
2019-03-28T10:37:45.829Z,56.20
2019-03-28T10:40:14.328Z,55.70
2019-03-28T10:42:42.894Z,54.80
2019-03-28T10:45:11.362Z,56.20
2019-03-28T10:47:39.980Z,57.40
2019-03-28T10:50:08.655Z,57.50
2019-03-28T10:52:37.200Z,55.70
2019-03-28T10:55:06.143Z,56.40
2019-03-28T10:57:34.669Z,56.50
2019-03-28T11:00:04.781Z,54.90
2019-03-28T11:02:33.326Z,54.90
2019-03-28T11:05:01.872Z,54.50
2019-03-28T11:07:30.437Z,54.00
2019-03-28T11:09:58.938Z,54.90
2019-03-28T11:12:27.496Z,54.60
2019-03-28T11:14:56.041Z,55.30
2019-03-28T11:17:24.531Z,54.00
2019-03-28T11:19:55.833Z,54.80
2019-03-28T11:22:23.282Z,54.90
2019-03-28T11:24:51.780Z,54.10
2019-03-28T11:27:20.358Z,54.90
2019-03-28T11:29:59.491Z,55.40
2019-03-28T11:32:28.251Z,54.90
2019-03-28T11:34:56.812Z,55.40
2019-03-28T11:37:26.725Z,53.70
2019-03-28T11:39:55.843Z,53.90
2019-03-28T11:42:24.419Z,54.50
2019-03-28T11:44:52.978Z,55.10
2019-03-28T11:47:22.388Z,56.00
2019-03-28T11:49:51.411Z,54.20
2019-03-28T11:52:19.967Z,52.70
2019-03-28T11:54:57.641Z,52.20
2019-03-28T11:57:26.254Z,53.20
2019-03-28T11:59:57.882Z,52.80
2019-03-28T12:02:25.435Z,51.90
2019-03-28T12:04:54.081Z,51.30
2019-03-28T12:07:22.558Z,51.20
2019-03-28T12:09:51.073Z,52.40
2019-03-28T12:12:26.522Z,52.50
2019-03-28T12:15:01.390Z,54.60
2019-03-28T12:17:29.871Z,52.90
2019-03-28T12:20:09.505Z,53.70
2019-03-28T12:22:37.974Z,53.00
2019-03-28T12:25:06.756Z,54.50
2019-03-28T12:27:35.224Z,51.60
2019-03-28T12:30:05.587Z,53.30
2019-03-28T12:32:34.083Z,52.20
2019-03-28T12:35:02.663Z,50.10
2019-03-28T12:37:31.245Z,52.80
2019-03-28T12:40:00.177Z,51.00
2019-03-28T12:42:28.929Z,51.40
2019-03-28T12:44:58.413Z,53.10
2019-03-28T12:47:41.201Z,51.00
2019-03-28T12:49:57.695Z,52.50
2019-03-28T12:52:29.618Z,50.80
2019-03-28T12:54:56.805Z,49.60
2019-03-28T12:57:25.357Z,51.30
2019-03-28T12:59:53.931Z,52.80
2019-03-28T13:02:30.176Z,55.20
2019-03-28T13:04:53.100Z,55.30
2019-03-28T13:07:21.648Z,52.40
2019-03-28T13:09:50.226Z,51.20
2019-03-28T13:12:18.783Z,51.00
2019-03-28T13:14:58.273Z,51.80
2019-03-28T13:17:27.861Z,51.90
2019-03-28T13:19:57.472Z,53.70
2019-03-28T13:22:31.995Z,54.90
2019-03-28T13:25:00.656Z,54.30
2019-03-28T13:27:29.533Z,53.80
2019-03-28T13:29:58.107Z,55.10
2019-03-28T13:32:26.742Z,54.40
2019-03-28T13:35:01.355Z,52.90
2019-03-28T13:37:29.902Z,53.60
2019-03-28T13:39:59.345Z,53.40
2019-03-28T13:42:28.131Z,54.50
2019-03-28T13:44:56.715Z,53.90
2019-03-28T13:47:25.257Z,55.00
2019-03-28T13:49:53.735Z,55.70
2019-03-28T13:52:22.335Z,54.40
2019-03-28T13:54:53.005Z,54.40
2019-03-28T13:57:21.792Z,53.70
2019-03-28T13:59:50.904Z,54.90
2019-03-28T14:02:19.403Z,55.20
2019-03-28T14:04:47.995Z,56.40
2019-03-28T14:07:17.422Z,56.60
2019-03-28T14:09:46.446Z,57.30
2019-03-28T14:12:15.029Z,55.00
2019-03-28T14:14:43.584Z,56.60
2019-03-28T14:17:12.128Z,56.40
2019-03-28T14:19:40.656Z,57.40
2019-03-28T14:22:09.213Z,56.70
2019-03-28T14:24:37.774Z,57.40
2019-03-28T14:27:06.304Z,57.00
2019-03-28T14:29:34.804Z,57.90
2019-03-28T14:32:03.434Z,58.10
2019-03-28T14:34:32.004Z,58.00
2019-03-28T14:37:00.553Z,58.80
2019-03-28T14:39:29.039Z,58.70
2019-03-28T14:41:57.539Z,56.20
2019-03-28T14:44:26.040Z,55.70
2019-03-28T14:46:54.601Z,56.00
2019-03-28T14:49:23.081Z,54.10
2019-03-28T14:51:52.039Z,53.20
2019-03-28T14:54:20.692Z,53.90
2019-03-28T14:56:50.766Z,54.20
2019-03-28T14:59:31.870Z,54.90
2019-03-28T15:01:50.114Z,56.40
2019-03-28T15:04:18.636Z,57.90
2019-03-28T15:06:47.145Z,59.20
2019-03-28T15:09:25.906Z,60.00
2019-03-28T15:11:55.509Z,60.90
2019-03-28T15:14:23.961Z,61.40
2019-03-28T15:16:59.618Z,62.40
2019-03-28T15:19:28.053Z,62.70
2019-03-28T15:21:56.722Z,63.00
2019-03-28T15:24:25.295Z,63.60
2019-03-28T15:26:55.312Z,63.60
2019-03-28T15:29:29.802Z,63.70
2019-03-28T15:31:58.379Z,64.30
2019-03-28T15:34:27.310Z,63.90
2019-03-28T15:36:55.793Z,64.00
2019-03-28T15:39:24.384Z,64.20
2019-03-28T15:41:52.962Z,63.90
2019-03-28T15:44:21.432Z,63.40
2019-03-28T15:46:49.980Z,63.00
2019-03-28T15:49:18.479Z,63.20
2019-03-28T15:51:47.052Z,63.50
2019-03-28T15:54:15.857Z,63.80
2019-03-28T15:56:44.544Z,63.10
2019-03-28T15:59:13.008Z,63.40
2019-03-28T16:01:41.492Z,63.70
2019-03-28T16:04:10.049Z,63.40
2019-03-28T16:06:38.531Z,64.00
2019-03-28T16:09:07.714Z,63.70
2019-03-28T16:11:36.295Z,63.60
2019-03-28T16:14:04.839Z,62.90
2019-03-28T16:16:33.328Z,63.50
2019-03-28T16:19:02.002Z,64.10
2019-03-28T16:21:30.565Z,63.40
2019-03-28T16:23:59.125Z,63.90
2019-03-28T16:26:27.680Z,64.90
2019-03-28T16:28:56.531Z,64.40
2019-03-28T16:31:31.119Z,64.40
2019-03-28T16:34:06.679Z,64.50
2019-03-28T16:36:29.837Z,64.50
2019-03-28T16:38:58.322Z,65.10
2019-03-28T16:41:26.838Z,65.10
2019-03-28T16:43:55.393Z,64.80
2019-03-28T16:46:23.980Z,65.00
2019-03-28T16:48:52.474Z,65.40
2019-03-28T16:51:21.064Z,65.40
2019-03-28T16:53:49.648Z,65.40
2019-03-28T16:56:18.623Z,65.70
2019-03-28T16:58:47.191Z,65.60
2019-03-28T17:01:15.777Z,65.70
2019-03-28T17:03:44.378Z,64.90
2019-03-28T17:06:13.018Z,64.40
2019-03-28T17:08:44.396Z,64.90
2019-03-28T17:11:12.953Z,65.30
2019-03-28T17:13:41.447Z,65.30
2019-03-28T17:16:10.002Z,65.70
2019-03-28T17:18:38.943Z,65.90
2019-03-28T17:21:07.432Z,66.40
2019-03-28T17:23:36.054Z,66.50
2019-03-28T17:26:04.679Z,67.10
2019-03-28T17:28:33.147Z,67.30
2019-03-28T17:31:01.800Z,67.80
2019-03-28T17:33:30.415Z,67.90
2019-03-28T17:35:58.971Z,68.40
2019-03-28T17:38:27.511Z,68.80
2019-03-28T17:40:56.090Z,68.80
2019-03-28T17:43:24.667Z,69.20
2019-03-28T17:45:53.230Z,69.20
2019-03-28T17:48:21.779Z,69.60
2019-03-28T17:50:50.233Z,69.60
2019-03-28T17:53:19.557Z,69.60
2019-03-28T17:55:48.395Z,69.70
2019-03-28T17:58:16.954Z,69.80
2019-03-28T18:00:46.677Z,70.10
2019-03-28T18:03:30.451Z,70.10
2019-03-28T18:05:57.858Z,70.30
2019-03-28T18:08:19.775Z,70.60
2019-03-28T18:10:48.575Z,70.80
2019-03-28T18:13:17.192Z,70.90
2019-03-28T18:15:45.772Z,71.10
2019-03-28T18:18:14.362Z,71.40
2019-03-28T18:20:42.924Z,71.40
2019-03-28T18:23:11.433Z,71.60
2019-03-28T18:25:39.918Z,71.90
2019-03-28T18:28:09.657Z,72.30
2019-03-28T18:30:38.521Z,72.40
2019-03-28T18:36:35.523Z,72.70
2019-03-28T18:39:07.095Z,72.80
2019-03-28T18:41:35.618Z,72.90
2019-03-28T18:44:04.078Z,73.20
2019-03-28T18:46:32.534Z,73.50
2019-03-28T18:49:00.990Z,73.60
2019-03-28T18:51:29.481Z,73.70
2019-03-28T18:53:58.041Z,73.80
2019-03-28T18:56:26.558Z,74.00
2019-03-28T18:58:55.124Z,74.30
2019-03-28T19:01:23.608Z,74.40
2019-03-28T19:03:52.100Z,75.00
2019-03-28T19:06:20.579Z,75.10
2019-03-28T19:08:49.463Z,75.20
2019-03-28T19:11:18.027Z,75.50
2019-03-28T19:13:46.524Z,75.70
2019-03-28T19:16:15.888Z,75.80
2019-03-28T19:18:44.894Z,76.00
2019-03-28T19:21:13.378Z,76.20
2019-03-28T19:23:41.947Z,76.30
2019-03-28T19:26:10.957Z,76.40
2019-03-28T19:28:40.054Z,76.60
2019-03-28T19:31:08.601Z,76.80
2019-03-28T19:33:38.295Z,77.20
2019-03-28T19:36:06.906Z,77.40
2019-03-28T19:38:36.104Z,78.00
2019-03-28T19:41:04.668Z,78.10
2019-03-28T19:43:34.039Z,78.30
2019-03-28T19:46:02.529Z,78.60
2019-03-28T19:48:35.778Z,78.70
2019-03-28T19:51:04.376Z,79.10
2019-03-28T19:53:35.296Z,79.10
2019-03-28T19:56:06.262Z,79.20
2019-03-28T19:58:35.252Z,79.90
2019-03-28T20:01:04.930Z,79.70
2019-03-28T20:03:33.508Z,80.50
2019-03-28T20:06:02.328Z,81.00
2019-03-28T20:08:30.943Z,80.90
2019-03-28T20:10:59.522Z,80.90
2019-03-28T20:13:30.782Z,80.70
2019-03-28T20:15:58.362Z,81.10
2019-03-28T20:18:27.286Z,80.90
2019-03-28T20:20:55.920Z,81.20
2019-03-28T20:23:24.650Z,81.20
2019-03-28T20:25:53.162Z,81.40
2019-03-28T20:28:21.687Z,81.70
2019-03-28T20:30:50.248Z,81.90
2019-03-28T20:33:19.162Z,82.00
2019-03-28T20:36:01.872Z,82.20
2019-03-28T20:38:17.933Z,82.50
2019-03-28T20:40:46.483Z,82.60
2019-03-28T20:43:15.076Z,82.90
2019-03-28T20:45:43.540Z,82.90
2019-03-28T20:48:12.091Z,83.00
2019-03-28T20:50:40.570Z,83.20
2019-03-28T20:53:09.132Z,83.00
2019-03-28T20:55:37.730Z,82.90
2019-03-28T20:58:06.196Z,83.00
2019-03-28T21:00:41.345Z,83.00
2019-03-28T21:03:10.171Z,83.00
2019-03-28T21:05:39.438Z,83.20
2019-03-28T21:08:08.457Z,83.40
2019-03-28T21:10:37.410Z,84.00
2019-03-28T21:13:05.921Z,84.40
2019-03-28T21:15:34.410Z,84.50
2019-03-28T21:18:02.899Z,84.90
2019-03-28T21:20:33.002Z,85.00
2019-03-28T21:23:04.918Z,85.00
2019-03-28T21:25:31.615Z,85.10
2019-03-28T21:28:00.100Z,85.40
2019-03-28T21:30:28.584Z,85.70
2019-03-28T21:32:58.489Z,86.00
2019-03-28T21:35:27.283Z,85.40
2019-03-28T21:37:55.732Z,85.10
2019-03-28T21:40:25.741Z,85.10
2019-03-28T21:42:54.774Z,85.10
2019-03-28T21:45:23.237Z,85.20
2019-03-28T21:47:51.682Z,85.60
2019-03-28T21:50:20.143Z,85.90
2019-03-28T21:52:48.610Z,86.00
2019-03-28T21:55:17.356Z,86.00
2019-03-28T21:57:45.825Z,86.40
2019-03-28T22:00:15.030Z,86.90
2019-03-28T22:02:43.592Z,87.00
2019-03-28T22:05:12.249Z,86.80
2019-03-28T22:07:41.130Z,86.60
2019-03-28T22:10:10.340Z,86.60
2019-03-28T22:12:38.985Z,86.70
2019-03-28T22:15:08.962Z,86.80
2019-03-28T22:17:37.671Z,87.00
2019-03-28T22:20:08.128Z,87.10
2019-03-28T22:22:36.906Z,87.10
2019-03-28T22:25:06.995Z,87.20
2019-03-28T22:27:35.423Z,87.30
2019-03-28T22:30:05.511Z,87.30
2019-03-28T22:32:33.935Z,87.60
2019-03-28T22:35:02.381Z,87.90
2019-03-28T22:37:31.104Z,87.80
2019-03-28T22:39:59.547Z,87.80
2019-03-28T22:42:28.007Z,87.70
2019-03-28T22:44:56.811Z,87.70
2019-03-28T22:47:25.408Z,87.80
2019-03-28T22:49:53.876Z,87.80
2019-03-28T22:52:22.498Z,87.80
2019-03-28T22:54:50.941Z,88.00
2019-03-28T22:57:19.374Z,88.20
2019-03-28T22:59:48.218Z,88.20
2019-03-28T23:02:16.977Z,88.10
2019-03-28T23:04:45.416Z,88.20
2019-03-28T23:07:13.932Z,88.30
2019-03-28T23:09:43.278Z,88.50
2019-03-28T23:12:11.780Z,88.80
2019-03-28T23:14:40.219Z,89.20
2019-03-28T23:17:08.983Z,89.30
2019-03-28T23:19:37.420Z,89.30
2019-03-28T23:22:05.940Z,89.30
2019-03-28T23:24:34.423Z,89.30
2019-03-28T23:27:03.211Z,89.30
2019-03-28T23:29:31.647Z,89.80
2019-03-28T23:32:00.112Z,90.00
2019-03-28T23:34:28.558Z,90.10
2019-03-28T23:36:57.007Z,90.10
2019-03-28T23:39:25.471Z,90.10
2019-03-28T23:41:56.038Z,89.90
2019-03-28T23:44:24.933Z,89.90
2019-03-28T23:46:53.401Z,89.90
2019-03-28T23:49:21.843Z,90.00
2019-03-28T23:51:50.851Z,90.10
2019-03-28T23:54:19.435Z,90.20
2019-03-28T23:56:47.880Z,90.20
2019-03-28T23:59:16.749Z,90.30
